createdAt,value
2018-04-23T00:00:49.411Z,15.89
2018-04-23T00:03:17.011Z,15.91
2018-04-23T00:05:44.643Z,15.93
2018-04-23T00:08:12.305Z,15.91
2018-04-23T00:10:40.012Z,15.89
2018-04-23T00:13:07.657Z,15.87
2018-04-23T00:15:35.266Z,15.84
2018-04-23T00:18:03.104Z,15.80
2018-04-23T00:20:30.861Z,15.76
2018-04-23T00:22:58.772Z,15.74
2018-04-23T00:25:26.467Z,15.70
2018-04-23T00:27:54.292Z,15.69
2018-04-23T00:30:21.970Z,15.70
2018-04-23T00:32:49.557Z,15.66
2018-04-23T00:35:17.336Z,15.68
2018-04-23T00:37:44.955Z,15.64
2018-04-23T00:40:12.659Z,15.62
2018-04-23T00:42:40.254Z,15.57
2018-04-23T00:45:08.189Z,15.56
2018-04-23T00:47:35.770Z,15.58
2018-04-23T00:50:03.360Z,15.58
2018-04-23T00:52:31.365Z,15.59
2018-04-23T00:54:59.178Z,15.58
2018-04-23T00:57:26.770Z,15.56
2018-04-23T00:59:54.500Z,15.52
2018-04-23T01:02:22.080Z,15.52
2018-04-23T01:04:49.674Z,15.48
2018-04-23T01:07:17.858Z,15.47
2018-04-23T01:09:45.455Z,15.46
2018-04-23T01:12:13.141Z,15.45
2018-04-23T01:14:40.763Z,15.40
2018-04-23T01:17:08.463Z,15.37
2018-04-23T01:19:36.049Z,15.32
2018-04-23T01:22:03.621Z,15.26
2018-04-23T01:24:31.238Z,15.24
2018-04-23T01:26:58.824Z,15.26
2018-04-23T01:29:26.769Z,15.27
2018-04-23T01:31:54.378Z,15.25
2018-04-23T01:34:21.967Z,15.28
2018-04-23T01:36:49.806Z,15.28
2018-04-23T01:39:17.390Z,15.28
2018-04-23T01:41:45.010Z,15.28
2018-04-23T01:44:12.842Z,15.29
2018-04-23T01:46:40.858Z,15.25
2018-04-23T01:49:08.503Z,15.23
2018-04-23T01:51:36.231Z,15.21
2018-04-23T01:54:03.819Z,15.20
2018-04-23T01:56:31.470Z,15.20
2018-04-23T01:58:59.095Z,15.18
2018-04-23T02:01:26.716Z,15.18
2018-04-23T02:03:54.347Z,15.16
2018-04-23T02:06:21.998Z,15.12
2018-04-23T02:08:50.004Z,15.10
2018-04-23T02:11:17.579Z,15.08
2018-04-23T02:13:45.259Z,15.08
2018-04-23T02:16:13.004Z,15.09
2018-04-23T02:18:40.636Z,15.06
2018-04-23T02:21:08.241Z,15.01
2018-04-23T02:23:35.870Z,15.01
2018-04-23T02:26:03.469Z,14.99
2018-04-23T02:28:31.505Z,14.95
2018-04-23T02:30:59.095Z,14.90
2018-04-23T02:33:26.840Z,14.91
2018-04-23T02:35:54.428Z,14.91
2018-04-23T02:38:21.997Z,14.87
2018-04-23T02:40:49.624Z,14.81
2018-04-23T02:43:17.437Z,14.80
2018-04-23T02:45:45.104Z,14.77
2018-04-23T02:48:12.745Z,14.74
2018-04-23T02:50:40.791Z,14.74
2018-04-23T02:53:11.586Z,14.71
2018-04-23T02:55:39.165Z,14.72
2018-04-23T02:58:06.833Z,14.71
2018-04-23T03:00:34.830Z,14.69
2018-04-23T03:03:02.513Z,14.70
2018-04-23T03:05:30.187Z,14.72
2018-04-23T03:07:57.810Z,14.72
2018-04-23T03:10:25.403Z,14.71
2018-04-23T03:12:53.075Z,14.67
2018-04-23T03:15:20.856Z,14.68
2018-04-23T03:17:48.533Z,14.64
2018-04-23T03:20:16.144Z,14.60
2018-04-23T03:22:43.834Z,14.60
2018-04-23T03:25:11.478Z,14.62
2018-04-23T03:27:39.104Z,14.60
2018-04-23T03:30:06.726Z,14.61
2018-04-23T03:32:34.579Z,14.58
2018-04-23T03:35:02.173Z,14.57
2018-04-23T03:37:29.821Z,14.56
2018-04-23T03:39:57.546Z,14.55
2018-04-23T03:42:25.180Z,14.54
2018-04-23T03:44:52.767Z,14.55
2018-04-23T03:47:20.443Z,14.50
2018-04-23T03:49:48.274Z,14.50
2018-04-23T03:52:15.982Z,14.52
2018-04-23T03:54:43.648Z,14.53
2018-04-23T03:57:11.571Z,14.51
2018-04-23T03:59:39.287Z,14.53
2018-04-23T04:02:06.937Z,14.51
2018-04-23T04:04:34.586Z,14.50
2018-04-23T04:07:02.206Z,14.47
2018-04-23T04:09:29.872Z,14.45
2018-04-23T04:11:57.594Z,14.47
2018-04-23T04:14:37.381Z,14.46
2018-04-23T04:17:05.068Z,14.42
2018-04-23T04:19:32.718Z,14.41
2018-04-23T04:22:00.390Z,14.40
2018-04-23T04:24:28.148Z,14.36
2018-04-23T04:26:55.791Z,14.35
2018-04-23T04:29:24.257Z,14.32
2018-04-23T04:31:51.892Z,14.30
2018-04-23T04:34:19.553Z,14.31
2018-04-23T04:36:47.668Z,14.29
2018-04-23T04:39:15.551Z,14.21
2018-04-23T04:41:43.919Z,14.20
2018-04-23T04:44:11.596Z,14.16
2018-04-23T04:46:39.197Z,14.13
2018-04-23T04:49:06.941Z,14.07
2018-04-23T04:51:34.704Z,14.05
2018-04-23T04:54:02.423Z,14.00
2018-04-23T04:56:30.234Z,13.99
2018-04-23T04:58:57.892Z,13.97
2018-04-23T05:01:25.551Z,13.93
2018-04-23T05:03:53.180Z,13.85
2018-04-23T05:06:21.067Z,13.86
2018-04-23T05:08:48.706Z,13.85
2018-04-23T05:11:16.352Z,13.85
2018-04-23T05:13:44.006Z,13.88
2018-04-23T05:16:11.732Z,13.83
2018-04-23T05:18:39.388Z,13.83
2018-04-23T05:21:06.965Z,13.83
2018-04-23T05:23:34.581Z,13.79
2018-04-23T05:26:02.189Z,13.85
2018-04-23T05:28:30.339Z,13.86
2018-04-23T05:30:57.996Z,13.86
2018-04-23T05:33:25.592Z,13.87
2018-04-23T05:35:53.639Z,13.86
2018-04-23T05:38:22.865Z,13.89
2018-04-23T05:40:50.744Z,13.91
2018-04-23T05:43:18.448Z,13.93
2018-04-23T05:45:46.053Z,13.96
2018-04-23T05:48:13.796Z,14.00
2018-04-23T05:50:41.746Z,14.04
2018-04-23T05:53:09.401Z,14.06
2018-04-23T05:55:37.068Z,14.13
2018-04-23T05:58:04.658Z,14.18
2018-04-23T06:00:32.583Z,14.28
2018-04-23T06:03:00.225Z,14.34
2018-04-23T06:05:28.119Z,14.28
2018-04-23T06:07:55.979Z,14.29
2018-04-23T06:10:23.984Z,14.31
2018-04-23T06:12:52.512Z,14.26
2018-04-23T06:15:20.105Z,14.23
2018-04-23T06:17:47.680Z,14.24
2018-04-23T06:20:15.397Z,14.23
2018-04-23T06:22:43.081Z,14.30
2018-04-23T06:25:10.836Z,14.29
2018-04-23T06:27:38.508Z,14.35
2018-04-23T06:30:06.093Z,14.42
2018-04-23T06:32:34.048Z,14.48
2018-04-23T06:35:01.780Z,14.61
2018-04-23T06:37:29.440Z,14.63
2018-04-23T06:39:57.337Z,14.69
2018-04-23T06:42:25.482Z,14.70
2018-04-23T06:44:53.068Z,14.71
2018-04-23T06:47:20.702Z,14.71
2018-04-23T06:49:48.501Z,14.74
2018-04-23T06:52:16.143Z,14.76
2018-04-23T06:54:43.879Z,14.77
2018-04-23T06:57:11.509Z,14.77
2018-04-23T06:59:39.225Z,14.83
2018-04-23T07:02:06.824Z,14.84
2018-04-23T07:04:34.517Z,14.86
2018-04-23T07:07:02.563Z,14.88
2018-04-23T07:09:30.235Z,14.78
2018-04-23T07:11:58.335Z,14.80
2018-04-23T07:14:25.927Z,14.75
2018-04-23T07:16:53.528Z,14.76
2018-04-23T07:19:21.254Z,14.81
2018-04-23T07:21:48.847Z,14.91
2018-04-23T07:24:17.700Z,15.04
2018-04-23T07:26:45.309Z,15.23
2018-04-23T07:29:13.060Z,15.29
2018-04-23T07:31:41.033Z,15.42
2018-04-23T07:34:08.766Z,15.58
2018-04-23T07:36:36.452Z,15.69
2018-04-23T07:39:04.384Z,15.77
2018-04-23T07:41:31.979Z,15.86
2018-04-23T07:43:59.696Z,15.81
2018-04-23T07:46:27.706Z,15.73
2018-04-23T07:48:55.291Z,15.63
2018-04-23T07:51:23.129Z,15.76
2018-04-23T07:53:50.739Z,15.90
2018-04-23T07:56:18.484Z,16.06
2018-04-23T07:58:46.104Z,16.24
2018-04-23T08:01:13.776Z,16.39
2018-04-23T08:03:41.635Z,16.51
2018-04-23T08:06:09.338Z,16.65
2018-04-23T08:08:36.949Z,16.71
2018-04-23T08:11:04.783Z,16.67
2018-04-23T08:13:32.728Z,16.64
2018-04-23T08:16:00.318Z,16.66
2018-04-23T08:18:28.648Z,16.67
2018-04-23T08:20:56.361Z,16.81
2018-04-23T08:23:24.014Z,16.94
2018-04-23T08:25:51.767Z,17.04
2018-04-23T08:28:19.457Z,17.13
2018-04-23T08:30:47.065Z,17.25
2018-04-23T08:33:14.769Z,17.38
2018-04-23T08:35:42.469Z,17.57
2018-04-23T08:38:10.131Z,17.67
2018-04-23T08:40:37.723Z,17.64
2018-04-23T08:43:05.311Z,17.58
2018-04-23T08:45:33.001Z,17.66
2018-04-23T08:48:00.668Z,17.68
2018-04-23T08:50:28.384Z,17.80
2018-04-23T08:52:56.047Z,17.88
2018-04-23T08:55:24.283Z,17.85
2018-04-23T08:57:51.901Z,17.74
2018-04-23T09:00:19.899Z,17.72
2018-04-23T09:02:47.802Z,17.72
2018-04-23T09:05:15.394Z,17.74
2018-04-23T09:07:43.337Z,17.58
2018-04-23T09:10:10.986Z,17.58
2018-04-23T09:12:38.734Z,17.46
2018-04-23T09:15:06.394Z,17.50
2018-04-23T09:17:34.104Z,17.53
2018-04-23T09:20:01.732Z,17.51
2018-04-23T09:22:29.952Z,17.51
2018-04-23T09:24:57.605Z,17.49
2018-04-23T09:27:25.267Z,17.57
2018-04-23T09:29:53.485Z,17.76
2018-04-23T09:32:21.137Z,17.83
2018-04-23T09:34:48.730Z,17.78
2018-04-23T09:37:16.509Z,17.85
2018-04-23T09:39:44.105Z,17.72
2018-04-23T09:42:11.765Z,17.80
2018-04-23T09:44:39.867Z,17.89
2018-04-23T09:47:07.903Z,18.13
2018-04-23T09:49:35.508Z,18.27
2018-04-23T09:52:03.119Z,18.24
2018-04-23T09:54:30.835Z,18.24
2018-04-23T09:56:58.642Z,18.18
2018-04-23T09:59:26.223Z,18.34
2018-04-23T10:01:54.319Z,18.64
2018-04-23T10:04:24.784Z,18.87
2018-04-23T10:06:52.617Z,19.03
2018-04-23T10:09:20.408Z,19.33
2018-04-23T10:11:48.489Z,19.62
2018-04-23T10:14:16.122Z,19.72
2018-04-23T10:16:44.061Z,19.52
2018-04-23T10:19:11.702Z,19.28
2018-04-23T10:21:39.362Z,19.24
2018-04-23T10:24:07.027Z,19.39
2018-04-23T10:26:34.740Z,19.40
2018-04-23T10:29:02.761Z,19.26
2018-04-23T10:31:30.386Z,19.39
2018-04-23T10:33:58.118Z,19.71
2018-04-23T10:36:25.792Z,20.07
2018-04-23T10:38:53.456Z,20.46
2018-04-23T10:41:21.083Z,20.64
2018-04-23T10:43:48.722Z,20.72
2018-04-23T10:46:16.352Z,20.95
2018-04-23T10:48:43.997Z,21.17
2018-04-23T10:51:11.576Z,20.88
2018-04-23T10:53:39.274Z,20.73
2018-04-23T10:56:06.915Z,20.14
2018-04-23T10:58:34.569Z,20.03
2018-04-23T11:01:02.215Z,19.88
2018-04-23T11:03:30.115Z,20.17
2018-04-23T11:05:57.881Z,20.43
2018-04-23T11:08:25.525Z,20.50
2018-04-23T11:10:53.183Z,20.45
2018-04-23T11:13:20.872Z,20.47
2018-04-23T11:15:48.852Z,20.29
2018-04-23T11:18:16.598Z,20.60
2018-04-23T11:20:44.246Z,20.82
2018-04-23T11:23:11.832Z,20.75
2018-04-23T11:25:39.537Z,20.80
2018-04-23T11:28:07.196Z,20.96
2018-04-23T11:30:35.064Z,21.21
2018-04-23T11:33:02.684Z,21.33
2018-04-23T11:35:30.358Z,21.29
2018-04-23T11:37:58.042Z,21.30
2018-04-23T11:40:25.617Z,21.38
2018-04-23T11:42:53.595Z,21.19
2018-04-23T11:45:21.165Z,21.20
2018-04-23T11:47:48.780Z,20.98
2018-04-23T11:50:16.964Z,20.75
2018-04-23T11:52:44.559Z,20.65
2018-04-23T11:55:12.212Z,20.82
2018-04-23T11:57:40.058Z,21.05
2018-04-23T12:00:07.708Z,20.85
2018-04-23T12:02:35.289Z,20.73
2018-04-23T12:05:02.910Z,20.78
2018-04-23T12:07:30.573Z,20.91
2018-04-23T12:09:58.360Z,21.22
2018-04-23T12:12:25.931Z,21.02
2018-04-23T12:14:53.639Z,20.98
2018-04-23T12:17:21.312Z,20.82
2018-04-23T12:19:49.008Z,20.71
2018-04-23T12:22:16.629Z,20.62
2018-04-23T12:24:44.508Z,20.34
2018-04-23T12:27:12.578Z,20.08
2018-04-23T12:29:40.413Z,20.01
2018-04-23T12:32:07.985Z,19.94
2018-04-23T12:34:35.748Z,19.87
2018-04-23T12:37:03.388Z,19.91
2018-04-23T12:39:30.986Z,20.35
2018-04-23T12:41:58.868Z,20.80
2018-04-23T12:44:26.609Z,21.07
2018-04-23T12:46:54.265Z,20.95
2018-04-23T12:49:21.838Z,20.71
2018-04-23T12:51:49.457Z,20.48
2018-04-23T12:54:17.044Z,20.29
2018-04-23T12:56:44.642Z,20.37
2018-04-23T12:59:12.340Z,20.17
2018-04-23T13:01:39.959Z,20.10
2018-04-23T13:04:08.292Z,19.98
2018-04-23T13:06:35.873Z,20.01
2018-04-23T13:09:03.568Z,19.90
2018-04-23T13:11:31.430Z,20.05
2018-04-23T13:13:59.094Z,20.03
2018-04-23T13:16:26.662Z,20.03
2018-04-23T13:18:54.341Z,19.77
2018-04-23T13:21:21.930Z,19.56
2018-04-23T13:23:49.541Z,19.52
2018-04-23T13:26:17.401Z,19.49
2018-04-23T13:28:45.366Z,19.69
2018-04-23T13:31:13.244Z,19.88
2018-04-23T13:33:40.836Z,19.99
2018-04-23T13:36:08.565Z,20.15
2018-04-23T13:38:36.154Z,20.21
2018-04-23T13:41:03.761Z,20.33
2018-04-23T13:43:31.369Z,20.31
2018-04-23T13:45:58.946Z,20.32
2018-04-23T13:48:26.784Z,20.47
2018-04-23T13:50:54.497Z,20.51
2018-04-23T13:53:22.074Z,20.70
2018-04-23T13:55:49.688Z,20.69
2018-04-23T13:58:17.503Z,20.71
2018-04-23T14:00:45.166Z,20.66
2018-04-23T14:03:13.350Z,20.65
2018-04-23T14:05:40.928Z,20.40
2018-04-23T14:08:08.565Z,20.42
2018-04-23T14:10:36.293Z,20.31
2018-04-23T14:13:04.115Z,20.49
2018-04-23T14:15:31.764Z,20.59
2018-04-23T14:17:59.379Z,20.68
2018-04-23T14:20:26.954Z,20.60
2018-04-23T14:22:54.562Z,20.59
2018-04-23T14:25:22.268Z,20.40
2018-04-23T14:27:49.843Z,20.36
2018-04-23T14:30:17.432Z,20.47
2018-04-23T14:32:45.086Z,20.47
2018-04-23T14:35:12.828Z,20.24
2018-04-23T14:37:40.590Z,20.22
2018-04-23T14:40:08.161Z,19.93
2018-04-23T14:42:36.180Z,19.86
2018-04-23T14:45:03.856Z,19.97
2018-04-23T14:47:31.448Z,19.95
2018-04-23T14:49:59.133Z,19.92
2018-04-23T14:52:26.761Z,19.92
2018-04-23T14:54:54.695Z,19.90
2018-04-23T14:57:22.612Z,20.01
2018-04-23T14:59:50.625Z,20.02
2018-04-23T15:02:18.588Z,19.96
2018-04-23T15:04:46.569Z,19.67
2018-04-23T15:07:14.187Z,19.36
2018-04-23T15:09:41.883Z,19.05
2018-04-23T15:12:09.751Z,19.21
2018-04-23T15:14:37.395Z,19.00
2018-04-23T15:17:05.069Z,18.97
2018-04-23T15:19:32.739Z,19.03
2018-04-23T15:22:00.688Z,18.96
2018-04-23T15:24:28.372Z,19.06
2018-04-23T15:26:56.067Z,18.93
2018-04-23T15:29:23.667Z,18.99
2018-04-23T15:31:51.261Z,18.94
2018-04-23T15:34:18.923Z,18.86
2018-04-23T15:36:46.598Z,18.59
2018-04-23T15:39:14.314Z,18.40
2018-04-23T15:41:41.898Z,18.55
2018-04-23T15:44:09.545Z,18.84
2018-04-23T15:46:37.190Z,18.94
2018-04-23T15:49:05.192Z,18.80
2018-04-23T15:51:33.169Z,18.49
2018-04-23T15:54:01.441Z,18.30
2018-04-23T15:56:29.097Z,18.04
2018-04-23T15:58:56.712Z,17.97
2018-04-23T16:01:24.367Z,18.20
2018-04-23T16:03:52.041Z,18.36
2018-04-23T16:06:20.488Z,18.34
2018-04-23T16:08:48.186Z,18.25
2018-04-23T16:11:15.891Z,18.27
2018-04-23T16:13:43.489Z,18.29
2018-04-23T16:16:11.584Z,18.27
2018-04-23T16:18:39.293Z,18.07
2018-04-23T16:21:06.867Z,17.82
2018-04-23T16:23:34.660Z,17.64
2018-04-23T16:26:02.235Z,17.53
2018-04-23T16:28:29.825Z,17.61
2018-04-23T16:30:57.575Z,17.61
2018-04-23T16:33:25.146Z,17.55
2018-04-23T16:35:52.724Z,17.48
2018-04-23T16:38:20.342Z,17.43
2018-04-23T16:40:48.148Z,17.42
2018-04-23T16:43:15.722Z,17.38
2018-04-23T16:45:43.523Z,17.31
2018-04-23T16:48:11.101Z,17.29
2018-04-23T16:50:38.754Z,17.13
2018-04-23T16:53:06.511Z,17.08
2018-04-23T16:55:34.435Z,17.06
2018-04-23T16:58:02.260Z,17.10
2018-04-23T17:00:29.888Z,17.07
2018-04-23T17:02:57.828Z,17.15
2018-04-23T17:05:25.475Z,17.24
2018-04-23T17:07:53.495Z,17.05
2018-04-23T17:10:21.432Z,17.00
2018-04-23T17:12:49.235Z,16.85
2018-04-23T17:15:16.854Z,16.71
2018-04-23T17:17:44.489Z,16.60
2018-04-23T17:20:12.268Z,16.54
2018-04-23T17:22:40.392Z,16.35
2018-04-23T17:25:07.986Z,16.25
2018-04-23T17:27:35.712Z,16.21
2018-04-23T17:30:03.294Z,16.26
2018-04-23T17:32:30.879Z,16.23
2018-04-23T17:34:58.511Z,16.20
2018-04-23T17:37:26.134Z,16.11
2018-04-23T17:39:53.736Z,15.87
2018-04-23T17:42:21.319Z,15.80
2018-04-23T17:44:48.966Z,15.77
2018-04-23T17:47:16.639Z,15.70
2018-04-23T17:49:44.285Z,15.64
2018-04-23T17:52:11.886Z,15.64
2018-04-23T17:54:39.729Z,15.63
2018-04-23T17:57:07.384Z,15.56
2018-04-23T17:59:35.020Z,15.49
2018-04-23T18:02:02.613Z,15.32
2018-04-23T18:04:30.539Z,15.29
2018-04-23T18:06:59.011Z,15.19
2018-04-23T18:09:26.679Z,15.14
2018-04-23T18:11:54.281Z,15.00
2018-04-23T18:14:22.061Z,14.90
2018-04-23T18:16:49.619Z,14.82
2018-04-23T18:19:17.199Z,14.69
2018-04-23T18:21:44.897Z,14.58
2018-04-23T18:24:12.606Z,14.60
2018-04-23T18:26:40.226Z,14.46
2018-04-23T18:29:07.929Z,14.37
2018-04-23T18:31:35.572Z,14.35
2018-04-23T18:34:03.224Z,14.33
2018-04-23T18:36:30.797Z,14.28
2018-04-23T18:38:58.522Z,14.24
2018-04-23T18:41:26.179Z,14.14
2018-04-23T18:43:53.818Z,14.13
2018-04-23T18:46:21.559Z,14.08
2018-04-23T18:48:49.141Z,13.98
2018-04-23T18:51:16.837Z,13.88
2018-04-23T18:53:44.568Z,13.88
2018-04-23T18:56:12.240Z,13.79
2018-04-23T18:58:39.873Z,13.77
2018-04-23T19:01:07.505Z,13.74
2018-04-23T19:03:35.153Z,13.74
2018-04-23T19:06:02.752Z,13.71
2018-04-23T19:08:30.485Z,13.71
2018-04-23T19:10:58.063Z,13.63
2018-04-23T19:13:25.629Z,13.61
2018-04-23T19:15:53.246Z,13.62
2018-04-23T19:18:21.389Z,13.64
2018-04-23T19:20:49.007Z,13.61
2018-04-23T19:23:17.968Z,13.60
2018-04-23T19:25:45.691Z,13.58
2018-04-23T19:28:13.421Z,13.59
2018-04-23T19:30:41.019Z,13.56
2018-04-23T19:33:08.783Z,13.53
2018-04-23T19:35:36.455Z,13.51
2018-04-23T19:38:04.035Z,13.53
2018-04-23T19:40:32.124Z,13.56
2018-04-23T19:42:59.701Z,13.58
2018-04-23T19:45:27.373Z,13.60
2018-04-23T19:47:55.068Z,13.62
2018-04-23T19:50:22.779Z,13.65
2018-04-23T19:52:50.499Z,13.64
2018-04-23T19:55:18.610Z,13.62
2018-04-23T19:57:46.592Z,13.60
2018-04-23T20:00:14.775Z,13.58
2018-04-23T20:02:42.597Z,13.55
2018-04-23T20:05:10.184Z,13.52
2018-04-23T20:07:37.779Z,13.48
2018-04-23T20:10:05.463Z,13.43
2018-04-23T20:12:33.222Z,13.38
2018-04-23T20:15:00.804Z,13.34
2018-04-23T20:17:28.439Z,13.29
2018-04-23T20:19:56.058Z,13.25
2018-04-23T20:22:23.657Z,13.20
2018-04-23T20:24:51.440Z,13.18
2018-04-23T20:27:19.033Z,13.11
2018-04-23T20:29:47.020Z,13.06
2018-04-23T20:32:14.705Z,13.01
2018-04-23T20:34:42.299Z,12.98
2018-04-23T20:37:10.047Z,12.93
2018-04-23T20:39:37.906Z,12.89
2018-04-23T20:42:05.527Z,12.85
2018-04-23T20:44:33.267Z,12.81
2018-04-23T20:47:01.135Z,12.76
2018-04-23T20:49:28.887Z,12.72
2018-04-23T20:51:56.886Z,12.68
2018-04-23T20:54:24.571Z,12.62
2018-04-23T20:56:52.406Z,12.58
2018-04-23T20:59:20.387Z,12.53
2018-04-23T21:01:47.990Z,12.48
2018-04-23T21:04:15.594Z,12.43
2018-04-23T21:06:43.307Z,12.39
2018-04-23T21:09:10.904Z,12.35
2018-04-23T21:11:38.659Z,12.34
2018-04-23T21:14:06.581Z,12.31
2018-04-23T21:16:34.221Z,12.28
2018-04-23T21:19:02.041Z,12.25
2018-04-23T21:21:29.776Z,12.21
2018-04-23T21:23:57.491Z,12.15
2018-04-23T21:26:25.514Z,12.10
2018-04-23T21:28:53.099Z,12.06
2018-04-23T21:31:20.737Z,12.03
2018-04-23T21:33:48.476Z,11.97
2018-04-23T21:36:16.086Z,11.94
2018-04-23T21:38:44.172Z,11.91
2018-04-23T21:41:11.835Z,11.90
2018-04-23T21:43:39.748Z,11.88
2018-04-23T21:46:07.359Z,11.86
2018-04-23T21:48:34.993Z,11.84
2018-04-23T21:51:03.054Z,11.83
2018-04-23T21:53:30.945Z,11.81
2018-04-23T21:55:58.544Z,11.81
2018-04-23T21:58:26.203Z,11.79
2018-04-23T22:00:53.840Z,11.76
2018-04-23T22:03:21.435Z,11.73
2018-04-23T22:05:49.155Z,11.71
2018-04-23T22:08:16.763Z,11.67
2018-04-23T22:10:44.329Z,11.65
2018-04-23T22:13:11.963Z,11.64
2018-04-23T22:15:39.636Z,11.64
2018-04-23T22:18:07.301Z,11.63
2018-04-23T22:20:35.306Z,11.63
2018-04-23T22:23:02.898Z,11.63
2018-04-23T22:25:30.558Z,11.56
2018-04-23T22:27:58.362Z,11.50
2018-04-23T22:30:26.128Z,11.44
2018-04-23T22:32:53.708Z,11.41
2018-04-23T22:35:21.896Z,11.38
2018-04-23T22:37:49.552Z,11.37
2018-04-23T22:40:17.244Z,11.36
2018-04-23T22:42:44.832Z,11.35
2018-04-23T22:45:12.537Z,11.32
2018-04-23T22:47:40.374Z,11.29
2018-04-23T22:50:08.237Z,11.27
2018-04-23T22:52:35.891Z,11.23
2018-04-23T22:55:03.587Z,11.21
2018-04-23T22:57:31.761Z,11.19
2018-04-23T22:59:59.405Z,11.18
2018-04-23T23:02:27.079Z,11.16
2018-04-23T23:04:55.277Z,11.17
2018-04-23T23:07:23.014Z,11.14
2018-04-23T23:09:50.595Z,11.11
2018-04-23T23:12:18.845Z,11.12
2018-04-23T23:14:47.735Z,11.13
2018-04-23T23:17:15.620Z,11.14
2018-04-23T23:19:43.303Z,11.13
2018-04-23T23:22:10.965Z,11.17
2018-04-23T23:24:38.909Z,11.21
2018-04-23T23:27:06.611Z,11.23
2018-04-23T23:29:34.226Z,11.22
2018-04-23T23:32:02.280Z,11.20
2018-04-23T23:34:29.876Z,11.20
2018-04-23T23:36:57.474Z,11.18
2018-04-23T23:39:25.167Z,11.16
2018-04-23T23:41:53.254Z,11.17
2018-04-23T23:44:20.855Z,11.18
2018-04-23T23:46:48.422Z,11.16
2018-04-23T23:49:16.258Z,11.14
2018-04-23T23:51:44.345Z,11.12
2018-04-23T23:54:11.995Z,11.11
2018-04-23T23:56:39.610Z,11.11
2018-04-23T23:59:07.190Z,11.10
